createdAt,value
2018-01-15T00:00:10.240Z,-57.11
2018-01-15T00:01:11.647Z,-57.13
2018-01-15T00:02:13.055Z,-57.12
2018-01-15T00:03:14.468Z,-57.12
2018-01-15T00:04:15.891Z,-57.11
2018-01-15T00:05:17.295Z,-57.10
2018-01-15T00:06:18.711Z,-57.11
2018-01-15T00:07:20.127Z,-57.12
2018-01-15T00:08:21.538Z,-57.11
2018-01-15T00:09:22.960Z,-57.13
2018-01-15T00:10:24.459Z,-57.12
2018-01-15T00:11:25.866Z,-57.13
2018-01-15T00:12:27.272Z,-57.10
2018-01-15T00:13:28.694Z,-57.09
2018-01-15T00:14:30.109Z,-57.10
2018-01-15T00:15:31.539Z,-57.10
2018-01-15T00:16:32.952Z,-57.10
2018-01-15T00:17:34.353Z,-57.11
2018-01-15T00:18:35.776Z,-57.10
2018-01-15T00:19:37.195Z,-57.09
2018-01-15T00:20:38.607Z,-57.11
2018-01-15T00:21:40.032Z,-57.10
2018-01-15T00:22:41.438Z,-57.10
2018-01-15T00:23:42.861Z,-57.12
2018-01-15T00:24:44.269Z,-57.12
2018-01-15T00:25:45.686Z,-57.12
2018-01-15T00:26:47.100Z,-57.13
2018-01-15T00:27:48.513Z,-57.12
2018-01-15T00:28:49.927Z,-57.13
2018-01-15T00:29:51.337Z,-57.13
2018-01-15T00:30:52.748Z,-57.14
2018-01-15T00:31:54.155Z,-57.13
2018-01-15T00:32:55.579Z,-57.13
2018-01-15T00:33:56.988Z,-57.13
2018-01-15T00:34:58.395Z,-57.14
2018-01-15T00:35:59.814Z,-57.14
2018-01-15T00:37:01.224Z,-57.15
2018-01-15T00:38:02.630Z,-57.17
2018-01-15T00:39:04.045Z,-57.17
2018-01-15T00:40:05.461Z,-57.18
2018-01-15T00:41:06.870Z,-57.18
2018-01-15T00:42:08.279Z,-57.20
2018-01-15T00:43:09.691Z,-57.22
2018-01-15T00:44:11.104Z,-57.20
2018-01-15T00:45:12.516Z,-57.19
2018-01-15T00:46:13.914Z,-57.19
2018-01-15T00:47:15.321Z,-57.19
2018-01-15T00:48:16.732Z,-57.20
2018-01-15T00:49:18.147Z,-57.20
2018-01-15T00:50:19.558Z,-57.20
2018-01-15T00:51:20.967Z,-57.20
2018-01-15T00:52:22.377Z,-57.19
2018-01-15T00:53:23.797Z,-57.18
2018-01-15T00:54:25.215Z,-57.18
2018-01-15T00:55:26.616Z,-57.20
2018-01-15T00:56:28.028Z,-57.20
2018-01-15T00:57:29.438Z,-57.21
2018-01-15T00:58:30.859Z,-57.20
2018-01-15T00:59:32.266Z,-57.18
2018-01-15T01:00:33.686Z,-57.17
2018-01-15T01:01:35.097Z,-57.17
2018-01-15T01:02:36.514Z,-57.18
2018-01-15T01:03:37.930Z,-57.16
2018-01-15T01:04:39.337Z,-57.16
2018-01-15T01:05:40.746Z,-57.17
2018-01-15T01:06:42.157Z,-57.18
2018-01-15T01:07:43.569Z,-57.18
2018-01-15T01:08:44.976Z,-57.19
2018-01-15T01:09:47.386Z,-57.18
2018-01-15T01:10:48.795Z,-57.18
2018-01-15T01:11:50.199Z,-57.18
2018-01-15T01:12:51.606Z,-57.19
2018-01-15T01:13:53.027Z,-57.17
2018-01-15T01:14:54.437Z,-57.18
2018-01-15T01:15:55.903Z,-57.18
2018-01-15T01:16:57.306Z,-57.18
2018-01-15T01:17:58.718Z,-57.17
2018-01-15T01:19:00.143Z,-57.17
2018-01-15T01:20:01.564Z,-57.19
2018-01-15T01:21:02.983Z,-57.20
2018-01-15T01:22:04.386Z,-57.21
2018-01-15T01:23:05.817Z,-57.20
2018-01-15T01:24:07.224Z,-57.21
2018-01-15T01:25:08.631Z,-57.20
2018-01-15T01:26:10.052Z,-57.22
2018-01-15T01:27:11.461Z,-57.22
2018-01-15T01:28:12.877Z,-57.22
2018-01-15T01:29:14.292Z,-57.22
2018-01-15T01:30:15.752Z,-57.22
2018-01-15T01:31:17.164Z,-57.23
2018-01-15T01:32:19.179Z,-57.22
2018-01-15T01:33:20.579Z,-57.22
2018-01-15T01:34:21.992Z,-57.20
2018-01-15T01:35:23.405Z,-57.21
2018-01-15T01:36:24.817Z,-57.21
2018-01-15T01:37:26.215Z,-57.21
2018-01-15T01:38:27.640Z,-57.19
2018-01-15T01:39:29.054Z,-57.19
2018-01-15T01:40:30.469Z,-57.19
2018-01-15T01:41:31.878Z,-57.17
2018-01-15T01:42:33.290Z,-57.16
2018-01-15T01:43:34.699Z,-57.15
2018-01-15T01:44:36.100Z,-57.15
2018-01-15T01:45:37.508Z,-57.16
2018-01-15T01:46:38.924Z,-57.16
2018-01-15T01:47:40.345Z,-57.17
2018-01-15T01:48:41.756Z,-57.15
2018-01-15T01:49:43.179Z,-57.14
2018-01-15T01:50:44.586Z,-57.15
2018-01-15T01:51:46.005Z,-57.14
2018-01-15T01:52:47.420Z,-57.14
2018-01-15T01:53:48.826Z,-57.14
2018-01-15T01:54:50.268Z,-57.14
2018-01-15T01:55:51.677Z,-57.14
2018-01-15T01:56:53.101Z,-57.14
2018-01-15T01:57:54.510Z,-57.15
2018-01-15T01:58:55.915Z,-57.15
2018-01-15T01:59:57.318Z,-57.14
2018-01-15T02:00:58.722Z,-57.14
2018-01-15T02:02:00.143Z,-57.13
2018-01-15T02:03:01.551Z,-57.14
2018-01-15T02:04:02.960Z,-57.12
2018-01-15T02:05:04.369Z,-57.11
2018-01-15T02:06:05.781Z,-57.14
2018-01-15T02:07:07.190Z,-57.15
2018-01-15T02:08:08.600Z,-57.13
2018-01-15T02:09:10.017Z,-57.13
2018-01-15T02:10:11.432Z,-57.13
2018-01-15T02:11:12.834Z,-57.12
2018-01-15T02:12:14.243Z,-57.13
2018-01-15T02:13:15.661Z,-57.13
2018-01-15T02:14:17.083Z,-57.13
2018-01-15T02:15:18.494Z,-57.12
2018-01-15T02:16:19.906Z,-57.13
2018-01-15T02:17:21.319Z,-57.12
2018-01-15T02:18:22.733Z,-57.13
2018-01-15T02:19:24.159Z,-57.14
2018-01-15T02:20:25.578Z,-57.15
2018-01-15T02:21:26.991Z,-57.15
2018-01-15T02:22:28.418Z,-57.13
2018-01-15T02:23:29.829Z,-57.13
2018-01-15T02:24:31.243Z,-57.13
2018-01-15T02:25:32.657Z,-57.13
2018-01-15T02:26:34.080Z,-57.11
2018-01-15T02:27:35.491Z,-57.12
2018-01-15T02:28:36.903Z,-57.12
2018-01-15T02:29:38.310Z,-57.12
2018-01-15T02:30:39.730Z,-57.14
2018-01-15T02:31:41.134Z,-57.14
2018-01-15T02:32:42.543Z,-57.12
2018-01-15T02:33:44.017Z,-57.10
2018-01-15T02:34:45.429Z,-57.11
2018-01-15T02:35:46.839Z,-57.12
2018-01-15T02:36:48.248Z,-57.15
2018-01-15T02:37:49.664Z,-57.14
2018-01-15T02:38:51.070Z,-57.13
2018-01-15T02:39:52.479Z,-57.14
2018-01-15T02:40:53.893Z,-57.14
2018-01-15T02:41:55.289Z,-57.15
2018-01-15T02:42:56.718Z,-57.15
2018-01-15T02:43:58.128Z,-57.13
2018-01-15T02:44:59.531Z,-57.15
2018-01-15T02:46:00.936Z,-57.15
2018-01-15T02:47:03.172Z,-57.16
2018-01-15T02:48:04.575Z,-57.16
2018-01-15T02:49:05.987Z,-57.16
2018-01-15T02:50:07.397Z,-57.16
2018-01-15T02:51:08.810Z,-57.17
2018-01-15T02:52:10.226Z,-57.17
2018-01-15T02:53:11.628Z,-57.16
2018-01-15T02:54:13.034Z,-57.15
2018-01-15T02:55:14.447Z,-57.16
2018-01-15T02:56:15.862Z,-57.17
2018-01-15T02:57:17.271Z,-57.17
2018-01-15T02:58:18.678Z,-57.17
2018-01-15T02:59:20.086Z,-57.19
2018-01-15T03:00:21.563Z,-57.19
2018-01-15T03:01:22.977Z,-57.19
2018-01-15T03:02:24.393Z,-57.21
2018-01-15T03:03:25.791Z,-57.21
2018-01-15T03:04:27.208Z,-57.20
2018-01-15T03:05:28.619Z,-57.21
2018-01-15T03:06:30.024Z,-57.20
2018-01-15T03:07:31.444Z,-57.18
2018-01-15T03:08:32.860Z,-57.17
2018-01-15T03:09:34.280Z,-57.17
2018-01-15T03:10:35.690Z,-57.17
2018-01-15T03:11:37.098Z,-57.17
2018-01-15T03:12:38.512Z,-57.17
2018-01-15T03:13:39.913Z,-57.18
2018-01-15T03:14:41.326Z,-57.18
2018-01-15T03:15:42.732Z,-57.18
2018-01-15T03:16:44.140Z,-57.18
2018-01-15T03:17:45.551Z,-57.18
2018-01-15T03:18:46.956Z,-57.18
2018-01-15T03:19:48.382Z,-57.18
2018-01-15T03:20:49.801Z,-57.20
2018-01-15T03:21:51.216Z,-57.22
2018-01-15T03:22:52.634Z,-57.22
2018-01-15T03:23:54.046Z,-57.22
2018-01-15T03:24:55.455Z,-57.22
2018-01-15T03:25:56.881Z,-57.23
2018-01-15T03:26:58.297Z,-57.23
2018-01-15T03:27:59.708Z,-57.24
2018-01-15T03:29:01.123Z,-57.25
2018-01-15T03:30:02.532Z,-57.25
2018-01-15T03:31:03.942Z,-57.24
2018-01-15T03:32:05.347Z,-57.26
2018-01-15T03:33:06.759Z,-57.26
2018-01-15T03:34:08.163Z,-57.27
2018-01-15T03:35:09.579Z,-57.26
2018-01-15T03:36:10.996Z,-57.28
2018-01-15T03:37:12.403Z,-57.29
2018-01-15T03:38:13.807Z,-57.28
2018-01-15T03:39:15.216Z,-57.28
2018-01-15T03:40:16.627Z,-57.27
2018-01-15T03:41:18.040Z,-57.29
2018-01-15T03:42:19.450Z,-57.30
2018-01-15T03:43:20.856Z,-57.32
2018-01-15T03:44:22.272Z,-57.32
2018-01-15T03:45:23.697Z,-57.32
2018-01-15T03:46:25.108Z,-57.33
2018-01-15T03:47:26.519Z,-57.33
2018-01-15T03:48:27.933Z,-57.32
2018-01-15T03:49:29.349Z,-57.32
2018-01-15T03:50:30.758Z,-57.33
2018-01-15T03:51:32.170Z,-57.32
2018-01-15T03:52:33.579Z,-57.32
2018-01-15T03:53:34.990Z,-57.33
2018-01-15T03:54:36.402Z,-57.33
2018-01-15T03:55:37.809Z,-57.34
2018-01-15T03:56:39.218Z,-57.33
2018-01-15T03:57:40.633Z,-57.33
2018-01-15T03:58:42.046Z,-57.34
2018-01-15T03:59:43.455Z,-57.35
2018-01-15T04:00:44.861Z,-57.35
2018-01-15T04:01:46.266Z,-57.35
2018-01-15T04:02:47.680Z,-57.36
2018-01-15T04:03:49.089Z,-57.36
2018-01-15T04:04:50.498Z,-57.35
2018-01-15T04:05:51.915Z,-57.35
2018-01-15T04:06:53.321Z,-57.36
2018-01-15T04:07:54.740Z,-57.36
2018-01-15T04:08:56.146Z,-57.40
2018-01-15T04:09:57.559Z,-57.38
2018-01-15T04:10:58.982Z,-57.38
2018-01-15T04:12:00.400Z,-57.38
2018-01-15T04:13:01.815Z,-57.38
2018-01-15T04:14:03.220Z,-57.38
2018-01-15T04:15:04.634Z,-57.37
2018-01-15T04:16:06.058Z,-57.37
2018-01-15T04:17:07.484Z,-57.36
2018-01-15T04:18:08.887Z,-57.37
2018-01-15T04:19:10.300Z,-57.37
2018-01-15T04:20:11.707Z,-57.35
2018-01-15T04:21:13.127Z,-57.36
2018-01-15T04:22:14.526Z,-57.36
2018-01-15T04:23:15.943Z,-57.37
2018-01-15T04:24:17.359Z,-57.36
2018-01-15T04:25:18.785Z,-57.36
2018-01-15T04:26:20.187Z,-57.37
2018-01-15T04:27:21.600Z,-57.37
2018-01-15T04:28:23.014Z,-57.36
2018-01-15T04:29:24.430Z,-57.36
2018-01-15T04:30:25.830Z,-57.38
2018-01-15T04:31:27.237Z,-57.46
2018-01-15T04:32:28.665Z,-57.46
2018-01-15T04:33:30.079Z,-57.44
2018-01-15T04:34:31.489Z,-57.43
2018-01-15T04:35:32.900Z,-57.40
2018-01-15T04:36:34.315Z,-57.39
2018-01-15T04:37:35.730Z,-57.37
2018-01-15T04:38:37.146Z,-57.37
2018-01-15T04:39:38.560Z,-57.36
2018-01-15T04:40:39.968Z,-57.36
2018-01-15T04:41:41.388Z,-57.36
2018-01-15T04:42:42.798Z,-57.37
2018-01-15T04:43:44.207Z,-57.37
2018-01-15T04:44:45.621Z,-57.36
2018-01-15T04:45:47.036Z,-57.37
2018-01-15T04:46:48.541Z,-57.39
2018-01-15T04:47:49.954Z,-57.39
2018-01-15T04:48:51.379Z,-57.40
2018-01-15T04:49:52.787Z,-57.43
2018-01-15T04:50:54.206Z,-57.46
2018-01-15T04:51:55.612Z,-57.51
2018-01-15T04:52:58.012Z,-57.51
2018-01-15T04:53:59.429Z,-57.45
2018-01-15T04:55:00.840Z,-57.42
2018-01-15T04:56:02.269Z,-57.39
2018-01-15T04:57:03.695Z,-57.40
2018-01-15T04:58:05.105Z,-57.39
2018-01-15T04:59:06.528Z,-57.39
2018-01-15T05:00:07.935Z,-57.39
2018-01-15T05:01:09.341Z,-57.40
2018-01-15T05:02:10.758Z,-57.42
2018-01-15T05:03:12.172Z,-57.43
2018-01-15T05:04:13.591Z,-57.43
2018-01-15T05:05:15.004Z,-57.42
2018-01-15T05:06:16.424Z,-57.41
2018-01-15T05:07:17.839Z,-57.43
2018-01-15T05:08:19.255Z,-57.44
2018-01-15T05:09:20.670Z,-57.44
2018-01-15T05:10:22.081Z,-57.44
2018-01-15T05:11:23.489Z,-57.43
2018-01-15T05:12:24.902Z,-57.45
2018-01-15T05:13:26.322Z,-57.47
2018-01-15T05:14:27.880Z,-57.48
2018-01-15T05:15:29.281Z,-57.47
2018-01-15T05:16:30.693Z,-57.46
2018-01-15T05:17:32.102Z,-57.46
2018-01-15T05:18:33.514Z,-57.45
2018-01-15T05:19:34.932Z,-57.45
2018-01-15T05:20:36.354Z,-57.44
2018-01-15T05:21:37.766Z,-57.45
2018-01-15T05:22:39.176Z,-57.46
2018-01-15T05:23:40.592Z,-57.47
2018-01-15T05:24:42.007Z,-57.48
2018-01-15T05:25:43.421Z,-57.47
2018-01-15T05:26:44.833Z,-57.47
2018-01-15T05:27:46.248Z,-57.48
2018-01-15T05:28:47.714Z,-57.49
2018-01-15T05:29:49.072Z,-57.47
2018-01-15T05:30:50.485Z,-57.47
2018-01-15T05:31:51.898Z,-57.47
2018-01-15T05:32:53.304Z,-57.47
2018-01-15T05:33:54.718Z,-57.47
2018-01-15T05:34:56.135Z,-57.49
2018-01-15T05:35:57.546Z,-57.48
2018-01-15T05:36:58.958Z,-57.50
2018-01-15T05:38:00.370Z,-57.50
2018-01-15T05:39:01.787Z,-57.50
2018-01-15T05:40:03.212Z,-57.51
2018-01-15T05:41:04.624Z,-57.51
2018-01-15T05:42:06.033Z,-57.52
2018-01-15T05:43:07.441Z,-57.54
2018-01-15T05:44:08.850Z,-57.53
2018-01-15T05:45:10.264Z,-57.54
2018-01-15T05:46:11.667Z,-57.54
2018-01-15T05:47:13.077Z,-57.55
2018-01-15T05:48:14.486Z,-57.54
2018-01-15T05:49:16.047Z,-57.55
2018-01-15T05:50:17.455Z,-57.56
2018-01-15T05:51:18.862Z,-57.57
2018-01-15T05:52:20.277Z,-57.57
2018-01-15T05:53:21.685Z,-57.59
2018-01-15T05:54:23.099Z,-57.59
2018-01-15T05:55:24.519Z,-57.58
2018-01-15T05:56:25.956Z,-57.58
2018-01-15T05:57:27.368Z,-57.60
2018-01-15T05:58:28.779Z,-57.60
2018-01-15T05:59:30.190Z,-57.60
2018-01-15T06:00:31.611Z,-57.60
2018-01-15T06:01:33.023Z,-57.60
2018-01-15T06:02:34.425Z,-57.60
2018-01-15T06:03:35.836Z,-57.61
2018-01-15T06:04:37.243Z,-57.61
2018-01-15T06:05:38.661Z,-57.62
2018-01-15T06:06:40.079Z,-57.63
2018-01-15T06:07:41.492Z,-57.62
2018-01-15T06:08:42.903Z,-57.63
2018-01-15T06:09:44.329Z,-57.62
2018-01-15T06:10:45.748Z,-57.61
2018-01-15T06:11:47.159Z,-57.61
2018-01-15T06:12:49.049Z,-57.61
2018-01-15T06:13:51.054Z,-57.61
2018-01-15T06:14:52.469Z,-57.61
2018-01-15T06:15:53.878Z,-57.63
2018-01-15T06:16:55.298Z,-57.63
2018-01-15T06:17:56.715Z,-57.62
2018-01-15T06:18:58.216Z,-57.62
2018-01-15T06:19:59.641Z,-57.62
2018-01-15T06:21:01.073Z,-57.62
2018-01-15T06:22:02.487Z,-57.62
2018-01-15T06:23:03.896Z,-57.62
2018-01-15T06:24:05.311Z,-57.61
2018-01-15T06:25:06.719Z,-57.60
2018-01-15T06:26:08.272Z,-57.60
2018-01-15T06:27:09.692Z,-57.59
2018-01-15T06:28:11.113Z,-57.59
2018-01-15T06:29:12.609Z,-57.57
2018-01-15T06:30:14.006Z,-57.59
2018-01-15T06:31:15.531Z,-57.59
2018-01-15T06:32:16.939Z,-57.59
2018-01-15T06:33:18.347Z,-57.58
2018-01-15T06:34:19.992Z,-57.57
2018-01-15T06:35:21.795Z,-57.56
2018-01-15T06:36:23.211Z,-57.56
2018-01-15T06:37:24.618Z,-57.55
2018-01-15T06:38:26.385Z,-57.55
2018-01-15T06:39:28.018Z,-57.54
2018-01-15T06:40:29.662Z,-57.54
2018-01-15T06:41:31.084Z,-57.54
2018-01-15T06:42:32.486Z,-57.54
2018-01-15T06:43:33.921Z,-57.53
2018-01-15T06:44:35.332Z,-57.52
2018-01-15T06:45:37.544Z,-57.52
2018-01-15T06:46:39.034Z,-57.53
2018-01-15T06:47:40.447Z,-57.53
2018-01-15T06:48:42.707Z,-57.54
2018-01-15T06:49:44.145Z,-57.54
2018-01-15T06:50:45.553Z,-57.55
2018-01-15T06:51:46.971Z,-57.54
2018-01-15T06:52:48.382Z,-57.54
2018-01-15T06:53:49.796Z,-57.54
2018-01-15T06:54:51.251Z,-57.54
2018-01-15T06:55:52.670Z,-57.54
2018-01-15T06:56:54.078Z,-57.54
2018-01-15T06:57:55.493Z,-57.54
2018-01-15T06:58:56.906Z,-57.53
2018-01-15T06:59:58.547Z,-57.52
2018-01-15T07:00:59.945Z,-57.52
2018-01-15T07:02:01.378Z,-57.51
2018-01-15T07:03:02.824Z,-57.52
2018-01-15T07:04:04.238Z,-57.53
2018-01-15T07:05:05.731Z,-57.53
2018-01-15T07:06:07.280Z,-57.51
2018-01-15T07:07:08.674Z,-57.52
2018-01-15T07:08:10.073Z,-57.51
2018-01-15T07:09:11.488Z,-57.52
2018-01-15T07:10:12.978Z,-57.52
2018-01-15T07:11:14.392Z,-57.53
2018-01-15T07:12:15.808Z,-57.54
2018-01-15T07:13:17.215Z,-57.54
2018-01-15T07:14:18.633Z,-57.54
2018-01-15T07:15:20.038Z,-57.54
2018-01-15T07:16:21.447Z,-57.54
2018-01-15T07:17:22.862Z,-57.55
2018-01-15T07:18:24.280Z,-57.54
2018-01-15T07:19:25.697Z,-57.54
2018-01-15T07:20:27.102Z,-57.53
2018-01-15T07:21:28.515Z,-57.54
2018-01-15T07:22:29.931Z,-57.55
2018-01-15T07:23:31.343Z,-57.57
2018-01-15T07:24:32.791Z,-57.57
2018-01-15T07:25:34.259Z,-57.58
2018-01-15T07:26:35.680Z,-57.56
2018-01-15T07:27:37.089Z,-57.57
2018-01-15T07:28:38.506Z,-57.56
2018-01-15T07:29:39.914Z,-57.57
2018-01-15T07:30:41.331Z,-57.56
2018-01-15T07:31:42.751Z,-57.58
2018-01-15T07:32:44.158Z,-57.59
2018-01-15T07:33:45.568Z,-57.58
2018-01-15T07:34:46.978Z,-57.58
2018-01-15T07:35:48.397Z,-57.58
2018-01-15T07:36:49.812Z,-57.59
2018-01-15T07:37:51.222Z,-57.59
2018-01-15T07:38:52.640Z,-57.58
2018-01-15T07:39:54.055Z,-57.57
2018-01-15T07:40:55.580Z,-57.57
2018-01-15T07:41:56.981Z,-57.58
2018-01-15T07:42:58.395Z,-57.58
2018-01-15T07:43:59.821Z,-57.58
2018-01-15T07:45:01.273Z,-57.59
2018-01-15T07:46:02.739Z,-57.60
2018-01-15T07:47:04.443Z,-57.59
2018-01-15T07:48:05.837Z,-57.58
2018-01-15T07:49:07.255Z,-57.57
2018-01-15T07:50:09.617Z,-57.57
2018-01-15T07:51:11.025Z,-57.57
2018-01-15T07:52:12.440Z,-57.57
2018-01-15T07:53:13.870Z,-57.59
2018-01-15T07:54:15.387Z,-57.58
2018-01-15T07:55:16.800Z,-57.58
2018-01-15T07:56:18.213Z,-57.58
2018-01-15T07:57:19.588Z,-57.58
2018-01-15T07:58:21.003Z,-57.59
2018-01-15T07:59:22.413Z,-57.60
2018-01-15T08:00:23.831Z,-57.58
2018-01-15T08:01:25.248Z,-57.57
2018-01-15T08:02:26.744Z,-57.58
2018-01-15T08:03:28.166Z,-57.58
2018-01-15T08:04:29.588Z,-57.60
2018-01-15T08:05:30.997Z,-57.58
2018-01-15T08:06:32.409Z,-57.61
2018-01-15T08:07:33.821Z,-57.61
2018-01-15T08:08:35.237Z,-57.61
2018-01-15T08:09:36.645Z,-57.61
2018-01-15T08:10:38.069Z,-57.60
2018-01-15T08:11:39.490Z,-57.62
2018-01-15T08:12:40.908Z,-57.62
2018-01-15T08:13:42.316Z,-57.62
2018-01-15T08:14:43.737Z,-57.63
2018-01-15T08:15:45.153Z,-57.63
2018-01-15T08:16:46.565Z,-57.64
2018-01-15T08:17:47.987Z,-57.65
2018-01-15T08:18:49.393Z,-57.66
2018-01-15T08:19:50.811Z,-57.65
2018-01-15T08:20:52.982Z,-57.66
2018-01-15T08:21:54.528Z,-57.66
2018-01-15T08:22:55.940Z,-57.66
2018-01-15T08:23:57.368Z,-57.66
2018-01-15T08:24:58.780Z,-57.68
2018-01-15T08:26:00.271Z,-57.67
2018-01-15T08:27:01.689Z,-57.66
2018-01-15T08:28:03.133Z,-57.67
2018-01-15T08:29:04.521Z,-57.67
2018-01-15T08:30:05.932Z,-57.67
2018-01-15T08:31:07.352Z,-57.66
2018-01-15T08:32:08.779Z,-57.67
2018-01-15T08:33:10.194Z,-57.68
2018-01-15T08:34:11.604Z,-57.68
2018-01-15T08:35:13.032Z,-57.69
2018-01-15T08:36:14.458Z,-57.70
2018-01-15T08:37:15.885Z,-57.70
2018-01-15T08:38:17.308Z,-57.71
2018-01-15T08:39:18.715Z,-57.71
2018-01-15T08:40:20.130Z,-57.71
2018-01-15T08:41:21.549Z,-57.72
2018-01-15T08:42:23.030Z,-57.72
2018-01-15T08:43:24.448Z,-57.73
2018-01-15T08:44:25.869Z,-57.73
2018-01-15T08:45:27.279Z,-57.72
2018-01-15T08:46:28.746Z,-57.72
2018-01-15T08:47:30.161Z,-57.72
2018-01-15T08:48:31.579Z,-57.72
2018-01-15T08:49:32.989Z,-57.74
2018-01-15T08:50:34.402Z,-57.74
2018-01-15T08:51:35.822Z,-57.75
2018-01-15T08:52:37.282Z,-57.75
2018-01-15T08:53:38.708Z,-57.73
2018-01-15T08:54:40.143Z,-57.74
2018-01-15T08:55:41.555Z,-57.75
2018-01-15T08:56:42.971Z,-57.75
2018-01-15T08:57:44.577Z,-57.75
2018-01-15T08:58:45.998Z,-57.76
2018-01-15T08:59:47.425Z,-57.75
2018-01-15T09:00:48.862Z,-57.75
2018-01-15T09:01:50.245Z,-57.75
2018-01-15T09:02:51.661Z,-57.75
2018-01-15T09:03:53.073Z,-57.75
2018-01-15T09:04:54.495Z,-57.75
2018-01-15T09:05:55.919Z,-57.76
2018-01-15T09:06:57.343Z,-57.76
2018-01-15T09:07:58.761Z,-57.76
2018-01-15T09:09:00.178Z,-57.76
2018-01-15T09:10:01.601Z,-57.77
2018-01-15T09:11:03.028Z,-57.77
2018-01-15T09:12:04.449Z,-57.77
2018-01-15T09:13:05.863Z,-57.77
2018-01-15T09:14:08.081Z,-57.78
2018-01-15T09:15:09.503Z,-57.79
2018-01-15T09:16:10.910Z,-57.80
2018-01-15T09:17:12.350Z,-57.79
2018-01-15T09:18:13.764Z,-57.79
2018-01-15T09:19:15.182Z,-57.79
2018-01-15T09:20:16.601Z,-57.80
2018-01-15T09:21:18.019Z,-57.80
2018-01-15T09:22:19.435Z,-57.81
2018-01-15T09:23:20.856Z,-57.80
2018-01-15T09:24:22.272Z,-57.80
2018-01-15T09:25:23.690Z,-57.81
2018-01-15T09:26:25.112Z,-57.82
2018-01-15T09:27:26.530Z,-57.81
2018-01-15T09:28:27.941Z,-57.81
2018-01-15T09:29:29.356Z,-57.82
2018-01-15T09:30:30.772Z,-57.84
2018-01-15T09:31:32.191Z,-57.82
2018-01-15T09:32:33.607Z,-57.84
2018-01-15T09:33:35.033Z,-57.86
2018-01-15T09:34:36.457Z,-57.86
2018-01-15T09:35:37.879Z,-57.85
2018-01-15T09:36:39.291Z,-57.85
2018-01-15T09:37:40.705Z,-57.85
2018-01-15T09:38:42.123Z,-57.85
2018-01-15T09:39:43.505Z,-57.85
2018-01-15T09:40:44.926Z,-57.85
2018-01-15T09:41:46.346Z,-57.85
2018-01-15T09:42:47.766Z,-57.87
2018-01-15T09:43:49.185Z,-57.88
2018-01-15T09:44:50.597Z,-57.86
2018-01-15T09:45:52.014Z,-57.87
2018-01-15T09:46:53.446Z,-57.88
2018-01-15T09:47:54.861Z,-57.87
2018-01-15T09:48:56.277Z,-57.87
2018-01-15T09:49:57.709Z,-57.88
2018-01-15T09:50:59.120Z,-57.88
2018-01-15T09:52:00.538Z,-57.88
2018-01-15T09:53:01.953Z,-57.86
2018-01-15T09:54:03.376Z,-57.87
2018-01-15T09:55:04.808Z,-57.87
2018-01-15T09:56:06.227Z,-57.87
2018-01-15T09:57:07.650Z,-57.86
2018-01-15T09:58:09.072Z,-57.89
2018-01-15T09:59:10.513Z,-57.91
2018-01-15T10:00:11.923Z,-57.90
2018-01-15T10:01:13.341Z,-57.91
2018-01-15T10:02:14.760Z,-57.91
2018-01-15T10:03:16.184Z,-57.90
2018-01-15T10:04:17.595Z,-57.90
2018-01-15T10:05:19.024Z,-57.91
2018-01-15T10:06:20.433Z,-57.92
2018-01-15T10:07:21.851Z,-57.94
2018-01-15T10:08:23.271Z,-57.93
2018-01-15T10:09:24.689Z,-57.93
2018-01-15T10:10:26.109Z,-57.95
2018-01-15T10:11:27.522Z,-57.97
2018-01-15T10:12:28.943Z,-57.97
2018-01-15T10:13:30.353Z,-57.97
2018-01-15T10:14:31.782Z,-57.97
2018-01-15T10:15:33.204Z,-57.98
2018-01-15T10:16:34.621Z,-57.95
2018-01-15T10:17:36.044Z,-57.96
2018-01-15T10:18:37.460Z,-57.96
2018-01-15T10:19:38.886Z,-57.97
2018-01-15T10:20:40.297Z,-57.96
2018-01-15T10:21:41.717Z,-57.97
2018-01-15T10:22:43.135Z,-57.97
2018-01-15T10:23:44.561Z,-57.97
2018-01-15T10:24:45.982Z,-57.99
2018-01-15T10:25:47.403Z,-57.98
2018-01-15T10:26:48.822Z,-57.98
2018-01-15T10:27:50.242Z,-57.99
2018-01-15T10:28:51.654Z,-58.00
2018-01-15T10:29:53.080Z,-57.98
2018-01-15T10:30:54.499Z,-57.99
2018-01-15T10:31:55.918Z,-57.99
2018-01-15T10:32:57.876Z,-57.99
2018-01-15T10:33:59.296Z,-58.00
2018-01-15T10:35:00.711Z,-57.99
2018-01-15T10:36:02.133Z,-57.99
2018-01-15T10:37:03.549Z,-57.99
2018-01-15T10:38:04.968Z,-57.99
2018-01-15T10:39:06.382Z,-58.01
2018-01-15T10:40:07.801Z,-58.01
2018-01-15T10:41:09.219Z,-58.02
2018-01-15T10:42:10.642Z,-58.02
2018-01-15T10:43:12.063Z,-58.03
2018-01-15T10:44:13.488Z,-58.03
2018-01-15T10:45:14.913Z,-58.03
2018-01-15T10:46:16.339Z,-58.04
2018-01-15T10:47:17.750Z,-58.05
2018-01-15T10:48:19.171Z,-58.04
2018-01-15T10:49:20.592Z,-58.04
2018-01-15T10:50:22.009Z,-58.04
2018-01-15T10:51:23.428Z,-58.04
2018-01-15T10:52:24.850Z,-58.03
2018-01-15T10:53:26.261Z,-58.04
2018-01-15T10:54:27.677Z,-58.06
2018-01-15T10:55:29.111Z,-58.06
2018-01-15T10:56:30.525Z,-58.07
2018-01-15T10:57:31.941Z,-58.08
2018-01-15T10:58:33.350Z,-58.06
2018-01-15T10:59:34.769Z,-58.06
2018-01-15T11:00:36.196Z,-58.07
2018-01-15T11:01:37.613Z,-58.07
2018-01-15T11:02:39.033Z,-58.06
2018-01-15T11:03:40.450Z,-58.06
2018-01-15T11:04:41.871Z,-58.07
2018-01-15T11:05:43.295Z,-58.08
2018-01-15T11:06:44.721Z,-58.09
2018-01-15T11:07:46.147Z,-58.07
2018-01-15T11:08:47.565Z,-58.07
2018-01-15T11:09:48.977Z,-58.10
2018-01-15T11:10:50.403Z,-58.10
2018-01-15T11:11:51.852Z,-58.10
2018-01-15T11:12:53.243Z,-58.10
2018-01-15T11:13:54.678Z,-58.12
2018-01-15T11:14:56.106Z,-58.12
2018-01-15T11:15:57.672Z,-58.11
2018-01-15T11:16:59.088Z,-58.11
2018-01-15T11:18:00.505Z,-58.12
2018-01-15T11:19:01.921Z,-58.14
2018-01-15T11:20:03.347Z,-58.16
2018-01-15T11:21:04.767Z,-58.17
2018-01-15T11:22:06.191Z,-58.18
2018-01-15T11:23:07.622Z,-58.19
2018-01-15T11:24:09.048Z,-58.19
2018-01-15T11:25:10.463Z,-58.21
2018-01-15T11:26:11.881Z,-58.21
2018-01-15T11:27:13.308Z,-58.21
2018-01-15T11:28:14.735Z,-58.20
2018-01-15T11:29:16.159Z,-58.18
2018-01-15T11:30:17.582Z,-58.19
2018-01-15T11:31:19.033Z,-58.18
2018-01-15T11:32:20.453Z,-58.18
2018-01-15T11:33:21.883Z,-58.18
2018-01-15T11:34:23.294Z,-58.17
2018-01-15T11:35:24.709Z,-58.17
2018-01-15T11:36:26.128Z,-58.18
2018-01-15T11:37:27.553Z,-58.20
2018-01-15T11:38:28.974Z,-58.20
2018-01-15T11:39:30.388Z,-58.20
2018-01-15T11:40:31.833Z,-58.20
2018-01-15T11:41:33.247Z,-58.18
2018-01-15T11:42:34.676Z,-58.19
2018-01-15T11:43:36.093Z,-58.18
2018-01-15T11:44:37.512Z,-58.19
2018-01-15T11:45:38.928Z,-58.19
2018-01-15T11:46:40.352Z,-58.20
2018-01-15T11:47:41.776Z,-58.21
2018-01-15T11:48:43.187Z,-58.21
2018-01-15T11:49:44.614Z,-58.22
2018-01-15T11:50:46.047Z,-58.21
2018-01-15T11:51:47.465Z,-58.21
2018-01-15T11:52:48.889Z,-58.20
2018-01-15T11:53:50.304Z,-58.20
2018-01-15T11:54:51.732Z,-58.19
2018-01-15T11:55:53.145Z,-58.20
2018-01-15T11:56:54.572Z,-58.19
2018-01-15T11:57:55.993Z,-58.18
2018-01-15T11:58:57.407Z,-58.18
2018-01-15T11:59:58.826Z,-58.17
2018-01-15T12:01:00.250Z,-58.16
2018-01-15T12:02:01.675Z,-58.16
2018-01-15T12:03:03.096Z,-58.15
2018-01-15T12:04:04.514Z,-58.17
2018-01-15T12:05:05.931Z,-58.15
2018-01-15T12:06:07.351Z,-58.15
2018-01-15T12:07:08.791Z,-58.14
2018-01-15T12:08:10.214Z,-58.14
2018-01-15T12:09:11.631Z,-58.13
2018-01-15T12:10:13.066Z,-58.13
2018-01-15T12:11:14.477Z,-58.13
2018-01-15T12:12:15.910Z,-58.12
2018-01-15T12:13:17.329Z,-58.12
2018-01-15T12:14:18.750Z,-58.12
2018-01-15T12:15:20.168Z,-58.12
2018-01-15T12:16:21.592Z,-58.13
2018-01-15T12:17:23.026Z,-58.12
2018-01-15T12:18:24.431Z,-58.13
2018-01-15T12:19:25.855Z,-58.10
2018-01-15T12:20:27.281Z,-58.12
2018-01-15T12:21:28.695Z,-58.11
2018-01-15T12:22:30.120Z,-58.13
2018-01-15T12:23:31.543Z,-58.17
2018-01-15T12:24:33.040Z,-58.21
2018-01-15T12:25:34.473Z,-58.16
2018-01-15T12:26:35.883Z,-58.14
2018-01-15T12:27:37.300Z,-58.09
2018-01-15T12:28:38.727Z,-58.10
2018-01-15T12:29:40.145Z,-58.10
2018-01-15T12:30:41.561Z,-58.10
2018-01-15T12:31:42.979Z,-58.10
2018-01-15T12:32:44.403Z,-58.09
2018-01-15T12:33:45.818Z,-58.09
2018-01-15T12:34:47.262Z,-58.08
2018-01-15T12:35:48.679Z,-58.07
2018-01-15T12:36:50.097Z,-58.08
2018-01-15T12:37:51.512Z,-58.08
2018-01-15T12:38:53.078Z,-58.06
2018-01-15T12:39:54.497Z,-58.08
2018-01-15T12:40:55.927Z,-58.08
2018-01-15T12:41:57.333Z,-58.09
2018-01-15T12:42:58.750Z,-58.07
2018-01-15T12:44:00.167Z,-58.08
2018-01-15T12:45:01.588Z,-58.07
2018-01-15T12:46:03.012Z,-58.06